createdAt,value
2018-05-24T00:00:25.300Z,18.79
2018-05-24T00:01:31.556Z,18.91
2018-05-24T00:02:37.859Z,18.77
2018-05-24T00:03:44.157Z,18.79
2018-05-24T00:04:50.875Z,18.82
2018-05-24T00:05:57.744Z,18.97
2018-05-24T00:07:03.861Z,19.09
2018-05-24T00:08:09.916Z,19.11
2018-05-24T00:09:15.993Z,19.10
2018-05-24T00:10:22.441Z,18.96
2018-05-24T00:11:28.402Z,19.00
2018-05-24T00:12:34.752Z,19.09
2018-05-24T00:13:41.068Z,19.20
2018-05-24T00:14:47.581Z,19.25
2018-05-24T00:15:53.625Z,19.26
2018-05-24T00:16:59.971Z,19.20
2018-05-24T00:18:06.282Z,19.02
2018-05-24T00:19:12.593Z,19.09
2018-05-24T00:20:18.326Z,19.07
2018-05-24T00:21:24.680Z,19.09
2018-05-24T00:22:30.933Z,19.03
2018-05-24T00:23:38.227Z,19.18
2018-05-24T00:24:44.829Z,19.11
2018-05-24T00:25:56.312Z,19.18
2018-05-24T00:27:02.618Z,19.24
2018-05-24T00:28:08.918Z,19.25
2018-05-24T00:29:15.126Z,19.32
2018-05-24T00:30:21.481Z,19.33
2018-05-24T00:31:27.755Z,19.26
2018-05-24T00:32:33.996Z,19.28
2018-05-24T00:33:40.278Z,19.41
2018-05-24T00:34:46.650Z,19.33
2018-05-24T00:35:53.340Z,19.19
2018-05-24T00:36:59.946Z,19.20
2018-05-24T00:38:06.306Z,19.20
2018-05-24T00:39:12.569Z,19.16
2018-05-24T00:40:18.905Z,19.26
2018-05-24T00:41:24.839Z,19.38
2018-05-24T00:42:31.099Z,19.45
2018-05-24T00:43:37.412Z,19.50
2018-05-24T00:44:43.757Z,19.40
2018-05-24T00:45:50.138Z,19.44
2018-05-24T00:46:56.420Z,19.50
2018-05-24T00:48:02.645Z,19.36
2018-05-24T00:49:08.946Z,19.34
2018-05-24T00:50:15.297Z,19.44
2018-05-24T00:51:21.570Z,19.49
2018-05-24T00:52:27.881Z,19.54
2018-05-24T00:53:44.793Z,19.47
2018-05-24T00:54:51.095Z,19.47
2018-05-24T00:55:57.087Z,19.44
2018-05-24T00:57:03.385Z,19.50
2018-05-24T00:58:18.776Z,19.39
2018-05-24T00:59:25.292Z,19.47
2018-05-24T01:00:32.299Z,19.53
2018-05-24T01:01:37.493Z,19.56
2018-05-24T01:02:43.886Z,19.55
2018-05-24T01:03:50.139Z,19.51
2018-05-24T01:04:56.506Z,19.55
2018-05-24T01:06:02.762Z,19.43
2018-05-24T01:07:09.030Z,19.44
2018-05-24T01:08:16.025Z,19.44
2018-05-24T01:09:23.183Z,19.50
2018-05-24T01:10:29.506Z,19.54
2018-05-24T01:11:35.449Z,19.48
2018-05-24T01:12:42.566Z,19.49
2018-05-24T01:13:48.605Z,19.46
2018-05-24T01:14:54.624Z,19.44
2018-05-24T01:16:00.944Z,19.34
2018-05-24T01:17:08.099Z,19.30
2018-05-24T01:18:14.326Z,19.40
2018-05-24T01:19:20.562Z,19.35
2018-05-24T01:20:26.889Z,19.11
2018-05-24T01:21:33.194Z,19.07
2018-05-24T01:22:39.525Z,19.07
2018-05-24T01:23:45.823Z,19.09
2018-05-24T01:24:52.133Z,19.01
2018-05-24T01:25:58.444Z,19.03
2018-05-24T01:27:05.047Z,19.18
2018-05-24T01:28:11.595Z,19.30
2018-05-24T01:29:17.870Z,19.38
2018-05-24T01:30:24.346Z,19.33
2018-05-24T01:31:30.609Z,19.36
2018-05-24T01:32:36.940Z,19.32
2018-05-24T01:33:43.387Z,19.34
2018-05-24T01:34:49.602Z,19.35
2018-05-24T01:35:55.877Z,19.23
2018-05-24T01:37:26.143Z,19.24
2018-05-24T01:38:32.142Z,19.27
2018-05-24T01:39:38.421Z,19.29
2018-05-24T01:40:44.753Z,19.27
2018-05-24T01:41:51.038Z,19.32
2018-05-24T01:42:57.262Z,19.34
2018-05-24T01:44:03.231Z,19.35
2018-05-24T01:45:09.326Z,19.36
2018-05-24T01:46:15.577Z,19.35
2018-05-24T01:47:21.889Z,19.37
2018-05-24T01:48:28.129Z,19.36
2018-05-24T01:49:34.408Z,19.20
2018-05-24T01:50:42.526Z,19.09
2018-05-24T01:51:48.782Z,18.95
2018-05-24T01:52:55.111Z,18.91
2018-05-24T01:54:02.265Z,18.94
2018-05-24T01:55:09.804Z,19.01
2018-05-24T01:56:16.105Z,19.03
2018-05-24T01:57:22.431Z,19.11
2018-05-24T01:58:28.692Z,19.08
2018-05-24T01:59:35.026Z,18.99
2018-05-24T02:00:41.875Z,18.91
2018-05-24T02:01:48.211Z,18.98
2018-05-24T02:02:54.472Z,19.04
2018-05-24T02:04:00.778Z,19.08
2018-05-24T02:05:06.815Z,19.10
2018-05-24T02:06:13.825Z,18.94
2018-05-24T02:07:20.211Z,18.77
2018-05-24T02:08:26.970Z,18.88
2018-05-24T02:09:33.922Z,18.95
2018-05-24T02:10:40.791Z,18.81
2018-05-24T02:11:47.219Z,18.70
2018-05-24T02:12:53.212Z,18.78
2018-05-24T02:13:59.548Z,18.86
2018-05-24T02:15:05.528Z,18.87
2018-05-24T02:16:11.888Z,18.91
2018-05-24T02:17:18.149Z,18.80
2018-05-24T02:18:24.344Z,18.76
2018-05-24T02:19:30.683Z,18.79
2018-05-24T02:20:36.700Z,18.72
2018-05-24T02:21:43.075Z,18.49
2018-05-24T02:22:49.436Z,18.58
2018-05-24T02:23:55.753Z,18.56
2018-05-24T02:25:02.248Z,18.60
2018-05-24T02:26:08.579Z,18.65
2018-05-24T02:27:15.474Z,18.66
2018-05-24T02:28:22.446Z,18.65
2018-05-24T02:29:33.066Z,18.65
2018-05-24T02:30:39.282Z,18.58
2018-05-24T02:31:45.561Z,18.51
2018-05-24T02:32:51.868Z,18.49
2018-05-24T02:33:58.149Z,18.54
2018-05-24T02:35:04.655Z,18.34
2018-05-24T02:36:11.012Z,18.33
2018-05-24T02:37:17.294Z,18.23
2018-05-24T02:38:23.661Z,18.35
2018-05-24T02:39:30.025Z,18.40
2018-05-24T02:40:36.330Z,18.34
2018-05-24T02:41:42.694Z,18.38
2018-05-24T02:42:48.955Z,18.42
2018-05-24T02:43:54.913Z,18.29
2018-05-24T02:45:01.216Z,18.13
2018-05-24T02:46:06.957Z,18.10
2018-05-24T02:47:14.067Z,18.23
2018-05-24T02:48:20.512Z,18.34
2018-05-24T02:49:26.828Z,18.42
2018-05-24T02:51:52.018Z,18.35
2018-05-24T02:52:58.682Z,18.31
2018-05-24T02:54:04.405Z,18.27
2018-05-24T02:55:10.375Z,18.28
2018-05-24T02:56:16.816Z,18.30
2018-05-24T02:57:23.799Z,18.26
2018-05-24T02:58:30.123Z,18.20
2018-05-24T02:59:36.469Z,18.17
2018-05-24T03:00:42.736Z,18.17
2018-05-24T03:01:49.256Z,18.21
2018-05-24T03:02:55.672Z,18.23
2018-05-24T03:04:02.025Z,18.25
2018-05-24T03:05:08.309Z,18.27
2018-05-24T03:06:14.607Z,18.28
2018-05-24T03:07:20.939Z,18.29
2018-05-24T03:08:26.917Z,18.31
2018-05-24T03:09:33.369Z,18.31
2018-05-24T03:10:39.657Z,18.27
2018-05-24T03:11:50.318Z,18.28
2018-05-24T03:13:03.482Z,18.31
2018-05-24T03:14:09.459Z,18.32
2018-05-24T03:15:16.469Z,18.31
2018-05-24T03:16:23.506Z,18.21
2018-05-24T03:17:29.783Z,18.24
2018-05-24T03:18:36.053Z,18.27
2018-05-24T03:19:42.632Z,18.26
2018-05-24T03:20:48.968Z,18.27
2018-05-24T03:21:55.301Z,18.26
2018-05-24T03:23:01.580Z,18.23
2018-05-24T03:24:07.885Z,18.19
2018-05-24T03:25:13.992Z,18.15
2018-05-24T03:26:20.108Z,18.17
2018-05-24T03:27:26.424Z,18.19
2018-05-24T03:28:33.655Z,18.18
2018-05-24T03:29:40.162Z,18.16
2018-05-24T03:30:46.500Z,18.18
2018-05-24T03:31:52.773Z,18.05
2018-05-24T03:33:00.568Z,18.12
2018-05-24T03:34:11.353Z,18.12
2018-05-24T03:35:17.578Z,18.00
2018-05-24T03:36:26.010Z,18.07
2018-05-24T03:37:33.017Z,18.11
2018-05-24T03:38:39.265Z,18.15
2018-05-24T03:39:45.610Z,18.15
2018-05-24T03:40:52.006Z,18.16
2018-05-24T03:41:58.364Z,18.12
2018-05-24T03:43:05.210Z,18.14
2018-05-24T03:44:12.264Z,18.18
2018-05-24T03:45:18.681Z,18.16
2018-05-24T03:46:24.741Z,18.17
2018-05-24T03:47:30.973Z,18.18
2018-05-24T03:48:37.274Z,18.16
2018-05-24T03:49:43.754Z,18.13
2018-05-24T03:50:50.097Z,18.12
2018-05-24T03:51:56.526Z,18.02
2018-05-24T03:53:02.826Z,18.04
2018-05-24T03:54:17.891Z,18.00
2018-05-24T03:55:24.087Z,17.95
2018-05-24T03:56:30.415Z,17.89
2018-05-24T03:57:36.723Z,17.91
2018-05-24T03:58:43.453Z,17.92
2018-05-24T04:00:09.554Z,17.96
2018-05-24T04:01:26.756Z,17.95
2018-05-24T04:02:44.272Z,17.93
2018-05-24T04:03:50.561Z,17.92
2018-05-24T04:04:57.592Z,17.82
2018-05-24T04:06:03.517Z,17.64
2018-05-24T04:07:09.784Z,17.62
2018-05-24T04:08:16.078Z,17.71
2018-05-24T04:09:22.415Z,17.80
2018-05-24T04:10:28.681Z,17.85
2018-05-24T04:11:35.046Z,17.81
2018-05-24T04:12:42.132Z,17.87
2018-05-24T04:13:48.416Z,17.90
2018-05-24T04:14:58.321Z,17.80
2018-05-24T04:16:04.538Z,17.79
2018-05-24T04:17:10.870Z,17.85
2018-05-24T04:18:17.162Z,17.80
2018-05-24T04:19:23.494Z,17.60
2018-05-24T04:20:30.252Z,17.63
2018-05-24T04:21:36.938Z,17.58
2018-05-24T04:22:43.592Z,17.42
2018-05-24T04:23:49.881Z,17.31
2018-05-24T04:24:56.311Z,17.43
2018-05-24T04:26:02.698Z,17.57
2018-05-24T04:27:09.027Z,17.53
2018-05-24T04:28:15.276Z,17.66
2018-05-24T04:29:21.503Z,17.70
2018-05-24T04:30:27.822Z,17.71
2018-05-24T04:31:34.162Z,17.72
2018-05-24T04:32:40.479Z,17.62
2018-05-24T04:33:47.144Z,17.67
2018-05-24T04:34:53.590Z,17.69
2018-05-24T04:35:59.811Z,17.68
2018-05-24T04:37:06.697Z,17.59
2018-05-24T04:38:12.975Z,17.59
2018-05-24T04:39:19.188Z,17.69
2018-05-24T04:40:25.424Z,17.47
2018-05-24T04:41:32.300Z,17.48
2018-05-24T04:42:38.586Z,17.57
2018-05-24T04:43:44.904Z,17.65
2018-05-24T04:44:51.726Z,17.49
2018-05-24T04:45:58.042Z,17.58
2018-05-24T04:47:04.016Z,17.64
2018-05-24T04:48:10.272Z,17.42
2018-05-24T04:49:16.580Z,17.50
2018-05-24T04:50:22.863Z,17.63
2018-05-24T04:51:29.174Z,17.72
2018-05-24T04:52:35.456Z,17.66
2018-05-24T04:53:41.706Z,17.69
2018-05-24T04:54:48.167Z,17.73
2018-05-24T04:55:55.990Z,17.67
2018-05-24T04:57:02.403Z,17.63
2018-05-24T04:58:08.719Z,17.68
2018-05-24T04:59:15.023Z,17.74
2018-05-24T05:00:21.314Z,17.78
2018-05-24T05:01:27.655Z,17.80
2018-05-24T05:02:33.959Z,17.84
2018-05-24T05:03:40.281Z,17.70
2018-05-24T05:04:46.595Z,17.77
2018-05-24T05:05:52.902Z,17.79
2018-05-24T05:06:59.186Z,17.86
2018-05-24T05:08:05.649Z,17.85
2018-05-24T05:09:12.127Z,17.88
2018-05-24T05:10:18.585Z,17.78
2018-05-24T05:11:25.556Z,17.82
2018-05-24T05:12:33.811Z,17.85
2018-05-24T05:13:42.849Z,17.85
2018-05-24T05:14:50.657Z,17.90
2018-05-24T05:15:58.951Z,17.85
2018-05-24T05:17:08.478Z,17.87
2018-05-24T05:18:16.978Z,17.87
2018-05-24T05:19:25.750Z,17.89
2018-05-24T05:20:33.821Z,17.86
2018-05-24T05:21:41.479Z,17.83
2018-05-24T05:22:50.454Z,17.84
2018-05-24T05:23:58.311Z,17.80
2018-05-24T05:25:05.543Z,17.77
2018-05-24T05:26:12.126Z,17.67
2018-05-24T05:27:18.181Z,17.71
2018-05-24T05:28:24.654Z,17.80
2018-05-24T05:29:31.074Z,17.80
2018-05-24T05:30:37.482Z,17.78
2018-05-24T05:31:43.920Z,17.74
2018-05-24T05:32:50.305Z,17.75
2018-05-24T05:33:56.641Z,17.59
2018-05-24T05:35:02.917Z,17.57
2018-05-24T05:36:09.307Z,17.66
2018-05-24T05:37:15.669Z,17.76
2018-05-24T05:38:27.849Z,17.78
2018-05-24T05:39:34.969Z,17.80
2018-05-24T05:40:41.427Z,17.64
2018-05-24T05:41:47.801Z,17.58
2018-05-24T05:42:54.157Z,17.67
2018-05-24T05:44:00.433Z,17.48
2018-05-24T05:45:06.836Z,17.55
2018-05-24T05:46:13.190Z,17.65
2018-05-24T05:47:19.488Z,17.66
2018-05-24T05:48:25.793Z,17.72
2018-05-24T05:49:32.089Z,17.71
2018-05-24T05:50:38.460Z,17.66
2018-05-24T05:51:44.758Z,17.57
2018-05-24T05:52:51.000Z,17.53
2018-05-24T05:53:57.379Z,17.53
2018-05-24T05:55:03.654Z,17.56
2018-05-24T05:56:09.889Z,17.51
2018-05-24T05:57:16.191Z,17.43
2018-05-24T05:58:22.598Z,17.32
2018-05-24T05:59:34.676Z,17.22
2018-05-24T06:00:40.877Z,17.06
2018-05-24T06:01:47.252Z,16.72
2018-05-24T06:02:53.763Z,16.53
2018-05-24T06:03:59.866Z,16.28
2018-05-24T06:05:05.776Z,16.12
2018-05-24T06:06:12.096Z,16.01
2018-05-24T06:07:18.438Z,15.92
2018-05-24T06:08:24.746Z,15.69
2018-05-24T06:09:31.087Z,15.44
2018-05-24T06:10:38.238Z,15.50
2018-05-24T06:11:44.533Z,15.52
2018-05-24T06:12:50.791Z,15.59
2018-05-24T06:13:57.323Z,15.48
2018-05-24T06:15:03.346Z,15.53
2018-05-24T06:16:09.729Z,15.27
2018-05-24T06:17:16.725Z,15.25
2018-05-24T06:18:22.990Z,15.33
2018-05-24T06:19:29.261Z,15.39
2018-05-24T06:20:40.520Z,15.39
2018-05-24T06:21:48.017Z,15.47
2018-05-24T06:22:54.257Z,15.43
2018-05-24T06:24:00.603Z,15.41
2018-05-24T06:25:06.922Z,15.42
2018-05-24T06:26:13.202Z,15.42
2018-05-24T06:27:19.201Z,15.49
2018-05-24T06:28:25.671Z,15.51
2018-05-24T06:29:32.397Z,15.46
2018-05-24T06:30:38.658Z,15.51
2018-05-24T06:31:44.971Z,15.33
2018-05-24T06:32:51.289Z,15.36
2018-05-24T06:33:57.613Z,15.47
2018-05-24T06:35:04.735Z,15.43
2018-05-24T06:36:11.024Z,15.45
2018-05-24T06:37:18.127Z,15.50
2018-05-24T06:38:26.628Z,15.58
2018-05-24T06:39:32.944Z,15.53
2018-05-24T06:40:39.309Z,15.43
2018-05-24T06:41:45.492Z,15.47
2018-05-24T06:42:51.846Z,15.37
2018-05-24T06:43:58.165Z,15.47
2018-05-24T06:45:04.740Z,15.48
2018-05-24T06:46:10.953Z,15.56
2018-05-24T06:47:17.355Z,15.65
2018-05-24T06:48:23.634Z,15.48
2018-05-24T06:49:30.571Z,15.49
2018-05-24T06:50:36.847Z,15.53
2018-05-24T06:51:43.355Z,15.63
2018-05-24T06:52:50.100Z,15.56
2018-05-24T06:53:56.984Z,15.61
2018-05-24T06:55:03.502Z,15.48
2018-05-24T06:56:09.774Z,15.58
2018-05-24T06:57:16.107Z,15.66
2018-05-24T06:58:22.372Z,15.62
2018-05-24T06:59:28.692Z,15.51
2018-05-24T07:00:35.908Z,15.43
2018-05-24T07:01:42.917Z,15.41
2018-05-24T07:02:49.146Z,15.47
2018-05-24T07:03:55.516Z,15.59
2018-05-24T07:05:02.638Z,15.70
2018-05-24T07:06:08.905Z,15.61
2018-05-24T07:07:15.229Z,15.52
2018-05-24T07:08:21.554Z,15.42
2018-05-24T07:09:28.714Z,15.44
2018-05-24T07:10:34.900Z,15.47
2018-05-24T07:11:42.040Z,15.53
2018-05-24T07:12:48.419Z,15.57
2018-05-24T07:13:54.754Z,15.53
2018-05-24T07:15:01.041Z,15.56
2018-05-24T07:16:07.801Z,15.64
2018-05-24T07:17:14.845Z,15.76
2018-05-24T07:18:21.100Z,15.86
2018-05-24T07:19:27.424Z,15.92
2018-05-24T07:20:33.754Z,15.89
2018-05-24T07:21:40.034Z,15.96
2018-05-24T07:22:46.349Z,16.05
2018-05-24T07:23:52.811Z,16.13
2018-05-24T07:25:00.268Z,16.22
2018-05-24T07:26:06.510Z,16.08
2018-05-24T07:27:13.156Z,15.90
2018-05-24T07:28:19.436Z,15.92
2018-05-24T07:29:25.769Z,16.00
2018-05-24T07:30:32.173Z,16.10
2018-05-24T07:31:38.474Z,16.01
2018-05-24T07:32:45.568Z,15.89
2018-05-24T07:33:52.034Z,15.91
2018-05-24T07:34:58.369Z,15.98
2018-05-24T07:36:04.641Z,16.02
2018-05-24T07:37:11.694Z,16.14
2018-05-24T07:38:18.656Z,16.22
2018-05-24T07:39:24.712Z,16.32
2018-05-24T07:40:31.040Z,16.43
2018-05-24T07:41:37.381Z,16.52
2018-05-24T07:42:44.310Z,16.52
2018-05-24T07:43:50.572Z,16.64
2018-05-24T07:44:56.974Z,16.55
2018-05-24T07:46:03.511Z,16.51
2018-05-24T07:47:09.841Z,16.49
2018-05-24T07:48:16.154Z,16.56
2018-05-24T07:49:22.403Z,16.67
2018-05-24T07:50:28.642Z,16.74
2018-05-24T07:51:34.954Z,16.83
2018-05-24T07:52:41.422Z,16.91
2018-05-24T07:53:47.676Z,16.84
2018-05-24T07:54:53.725Z,16.88
2018-05-24T07:56:00.203Z,16.97
2018-05-24T07:57:06.618Z,16.96
2018-05-24T07:58:12.847Z,16.85
2018-05-24T07:59:21.809Z,16.89
2018-05-24T08:00:28.169Z,16.81
2018-05-24T08:01:34.465Z,16.88
2018-05-24T08:02:41.044Z,17.00
2018-05-24T08:03:47.407Z,17.04
2018-05-24T08:04:53.931Z,17.10
2018-05-24T08:06:00.548Z,17.13
2018-05-24T08:07:06.798Z,17.19
2018-05-24T08:08:13.126Z,17.23
2018-05-24T08:09:19.413Z,17.30
2018-05-24T08:10:25.751Z,17.32
2018-05-24T08:11:31.990Z,17.43
2018-05-24T08:12:38.290Z,17.42
2018-05-24T08:13:44.582Z,17.37
2018-05-24T08:14:51.782Z,17.48
2018-05-24T08:15:58.348Z,17.59
2018-05-24T08:17:04.673Z,17.52
2018-05-24T08:18:10.966Z,17.49
2018-05-24T08:19:17.299Z,17.58
2018-05-24T08:20:23.592Z,17.63
2018-05-24T08:21:29.916Z,17.65
2018-05-24T08:22:36.307Z,17.78
2018-05-24T08:23:43.550Z,17.90
2018-05-24T08:24:50.544Z,17.97
2018-05-24T08:25:59.150Z,17.96
2018-05-24T08:27:07.380Z,17.95
2018-05-24T08:28:13.703Z,18.09
2018-05-24T08:29:19.994Z,18.13
2018-05-24T08:30:26.345Z,18.18
2018-05-24T08:31:32.616Z,18.13
2018-05-24T08:32:38.869Z,18.19
2018-05-24T08:33:45.899Z,18.18
2018-05-24T08:34:52.234Z,18.28
2018-05-24T08:35:58.504Z,18.37
2018-05-24T08:37:04.788Z,18.33
2018-05-24T08:38:11.122Z,18.43
2018-05-24T08:39:18.383Z,18.49
2018-05-24T08:40:25.404Z,18.52
2018-05-24T08:41:31.718Z,18.65
2018-05-24T08:42:37.642Z,18.71
2018-05-24T08:43:43.898Z,18.77
2018-05-24T08:44:50.185Z,18.83
2018-05-24T08:45:56.138Z,18.89
2018-05-24T08:47:02.487Z,18.91
2018-05-24T08:48:08.970Z,18.96
2018-05-24T08:49:15.282Z,18.98
2018-05-24T08:50:21.586Z,18.98
2018-05-24T08:51:27.921Z,19.02
2018-05-24T08:52:34.250Z,19.07
2018-05-24T08:53:40.513Z,19.11
2018-05-24T08:54:46.822Z,19.18
2018-05-24T08:55:53.410Z,19.20
2018-05-24T08:56:59.642Z,19.28
2018-05-24T08:58:05.887Z,19.37
2018-05-24T08:59:12.161Z,19.38
2018-05-24T09:00:18.505Z,19.49
2018-05-24T09:01:24.894Z,19.54
2018-05-24T09:02:31.324Z,19.64
2018-05-24T09:03:37.659Z,19.78
2018-05-24T09:04:43.986Z,19.86
2018-05-24T09:05:50.256Z,19.87
2018-05-24T09:06:56.609Z,19.95
2018-05-24T09:08:02.843Z,20.03
2018-05-24T09:09:14.290Z,20.08
2018-05-24T09:10:20.314Z,20.17
2018-05-24T09:11:26.976Z,20.20
2018-05-24T09:12:33.261Z,20.26
2018-05-24T09:13:39.604Z,20.29
2018-05-24T09:14:45.907Z,20.31
2018-05-24T09:15:52.219Z,20.35
2018-05-24T09:16:59.866Z,20.41
2018-05-24T09:18:06.951Z,20.51
2018-05-24T09:19:12.957Z,20.53
2018-05-24T09:20:19.303Z,20.56
2018-05-24T09:21:25.676Z,20.55
2018-05-24T09:22:31.996Z,20.55
2018-05-24T09:23:38.288Z,20.57
2018-05-24T09:24:44.585Z,20.60
2018-05-24T09:25:51.055Z,20.64
2018-05-24T09:26:57.338Z,20.67
2018-05-24T09:28:04.425Z,20.71
2018-05-24T09:29:13.726Z,20.71
2018-05-24T09:30:23.781Z,20.74
2018-05-24T09:31:29.977Z,20.77
2018-05-24T09:32:36.253Z,20.77
2018-05-24T09:33:42.476Z,20.78
2018-05-24T09:34:49.408Z,20.77
2018-05-24T09:35:55.744Z,20.78
2018-05-24T09:37:02.032Z,20.80
2018-05-24T09:38:08.336Z,20.78
2018-05-24T09:39:14.640Z,20.79
2018-05-24T09:40:20.972Z,20.78
2018-05-24T09:41:27.678Z,20.79
2018-05-24T09:42:34.011Z,20.77
2018-05-24T09:43:40.298Z,20.78
2018-05-24T09:44:46.622Z,20.79
2018-05-24T09:45:52.957Z,20.79
2018-05-24T09:46:59.200Z,20.76
2018-05-24T09:48:05.690Z,20.83
2018-05-24T09:49:11.968Z,20.87
2018-05-24T09:50:26.016Z,20.93
2018-05-24T09:51:32.197Z,20.98
2018-05-24T09:52:38.525Z,21.05
2018-05-24T09:53:44.713Z,21.09
2018-05-24T09:54:51.039Z,21.17
2018-05-24T09:55:57.330Z,21.17
2018-05-24T09:57:03.616Z,21.20
2018-05-24T09:58:09.961Z,21.23
2018-05-24T09:59:16.228Z,21.21
2018-05-24T10:00:23.754Z,21.28
2018-05-24T10:01:29.995Z,21.33
2018-05-24T10:02:36.186Z,21.36
2018-05-24T10:03:42.508Z,21.40
2018-05-24T10:04:48.816Z,21.41
2018-05-24T10:05:55.088Z,21.43
2018-05-24T10:07:01.377Z,21.39
2018-05-24T10:08:07.687Z,21.43
2018-05-24T10:09:13.965Z,21.47
2018-05-24T10:10:20.198Z,21.53
2018-05-24T10:11:26.521Z,21.57
2018-05-24T10:12:33.472Z,21.59
2018-05-24T10:13:39.728Z,21.53
2018-05-24T10:14:46.029Z,21.58
2018-05-24T10:15:52.379Z,21.62
2018-05-24T10:16:58.660Z,21.64
2018-05-24T10:18:05.599Z,21.58
2018-05-24T10:19:12.061Z,21.58
2018-05-24T10:20:18.522Z,21.62
2018-05-24T10:21:24.876Z,21.54
2018-05-24T10:22:31.864Z,21.47
2018-05-24T10:23:38.728Z,21.55
2018-05-24T10:24:45.020Z,21.65
2018-05-24T10:25:51.856Z,21.57
2018-05-24T10:26:58.150Z,21.64
2018-05-24T10:28:04.500Z,21.68
2018-05-24T10:29:10.809Z,21.74
2018-05-24T10:30:16.813Z,21.78
2018-05-24T10:31:23.113Z,21.78
2018-05-24T10:32:34.981Z,21.80
2018-05-24T10:33:41.409Z,21.78
2018-05-24T10:34:47.643Z,21.82
2018-05-24T10:35:53.984Z,21.82
2018-05-24T10:37:01.148Z,21.88
2018-05-24T10:38:07.049Z,21.85
2018-05-24T10:39:14.166Z,21.90
2018-05-24T10:40:20.443Z,21.93
2018-05-24T10:41:26.786Z,21.92
2018-05-24T10:42:33.006Z,21.89
2018-05-24T10:43:39.261Z,21.89
2018-05-24T10:44:45.490Z,21.92
2018-05-24T10:45:51.814Z,21.96
2018-05-24T10:46:58.127Z,21.93
2018-05-24T10:48:04.445Z,21.98
2018-05-24T10:49:11.636Z,21.99
2018-05-24T10:50:18.824Z,21.99
2018-05-24T10:51:24.841Z,22.01
2018-05-24T10:52:31.088Z,21.97
2018-05-24T10:53:41.729Z,22.01
2018-05-24T10:54:48.073Z,22.00
2018-05-24T10:55:55.019Z,22.05
2018-05-24T10:57:02.228Z,22.07
2018-05-24T10:58:08.492Z,22.02
2018-05-24T10:59:14.905Z,22.00
2018-05-24T11:00:21.204Z,21.99
2018-05-24T11:01:27.470Z,21.96
2018-05-24T11:02:33.698Z,21.95
2018-05-24T11:03:39.940Z,21.99
2018-05-24T11:04:46.252Z,21.98
2018-05-24T11:05:52.908Z,21.98
2018-05-24T11:06:59.224Z,21.97
2018-05-24T11:08:05.495Z,21.98
2018-05-24T11:09:11.717Z,21.97
2018-05-24T11:10:17.668Z,21.98
2018-05-24T11:11:23.950Z,21.97
2018-05-24T11:12:30.128Z,21.92
2018-05-24T11:13:36.256Z,21.90
2018-05-24T11:14:45.712Z,21.93
2018-05-24T11:15:51.902Z,21.97
2018-05-24T11:16:58.167Z,22.02
2018-05-24T11:18:04.457Z,22.05
2018-05-24T11:19:11.437Z,22.04
2018-05-24T11:20:18.260Z,22.04
2018-05-24T11:21:24.590Z,22.06
2018-05-24T11:22:31.025Z,22.06
2018-05-24T11:23:37.212Z,22.05
2018-05-24T11:24:43.606Z,22.03
2018-05-24T11:25:49.894Z,22.02
2018-05-24T11:26:56.213Z,22.00
2018-05-24T11:28:02.478Z,22.01
2018-05-24T11:29:08.717Z,22.00
2018-05-24T11:30:15.004Z,21.97
2018-05-24T11:31:21.346Z,21.98
2018-05-24T11:32:27.659Z,21.98
2018-05-24T11:33:33.970Z,21.97
2018-05-24T11:34:40.261Z,21.97
2018-05-24T11:35:55.450Z,22.01
2018-05-24T11:37:03.571Z,22.00
2018-05-24T11:38:10.041Z,21.94
2018-05-24T11:39:16.367Z,21.92
2018-05-24T11:40:22.686Z,21.94
2018-05-24T11:41:29.001Z,21.96
2018-05-24T11:42:35.291Z,21.96
2018-05-24T11:43:41.264Z,21.96
2018-05-24T11:44:47.601Z,21.95
2018-05-24T11:45:54.019Z,21.95
2018-05-24T11:47:01.444Z,21.97
2018-05-24T11:48:07.703Z,21.96
2018-05-24T11:49:14.012Z,21.94
2018-05-24T11:50:20.263Z,21.87
2018-05-24T11:51:26.533Z,21.94
2018-05-24T11:52:33.555Z,21.94
2018-05-24T11:53:39.837Z,21.95
2018-05-24T11:54:45.811Z,21.95
2018-05-24T11:55:52.181Z,21.98
2018-05-24T11:57:00.318Z,22.00
2018-05-24T11:58:06.516Z,22.01
2018-05-24T11:59:12.723Z,21.94
2018-05-24T12:00:18.973Z,21.99
2018-05-24T12:01:25.285Z,21.99
2018-05-24T12:02:31.568Z,21.99
2018-05-24T12:03:37.782Z,21.97
2018-05-24T12:04:44.252Z,22.01
2018-05-24T12:05:50.557Z,22.03
2018-05-24T12:06:56.831Z,22.04
2018-05-24T12:08:03.220Z,22.02
2018-05-24T12:09:09.057Z,22.03
2018-05-24T12:10:15.320Z,22.05
2018-05-24T12:11:21.625Z,22.04
2018-05-24T12:12:28.002Z,22.06
2018-05-24T12:13:34.314Z,22.08
2018-05-24T12:14:40.588Z,22.11
2018-05-24T12:15:47.573Z,22.11
2018-05-24T12:16:53.963Z,22.06
2018-05-24T12:18:02.793Z,22.03
2018-05-24T12:19:09.001Z,22.08
2018-05-24T12:20:15.277Z,22.12
2018-05-24T12:21:21.249Z,22.01
2018-05-24T12:22:27.570Z,21.97
2018-05-24T12:23:34.345Z,22.02
2018-05-24T12:24:40.569Z,22.14
2018-05-24T12:25:48.594Z,22.16
2018-05-24T12:26:55.066Z,22.23
2018-05-24T12:28:01.493Z,22.31
2018-05-24T12:29:09.440Z,22.34
2018-05-24T12:30:15.915Z,22.33
2018-05-24T12:31:22.234Z,22.37
2018-05-24T12:32:30.503Z,22.26
2018-05-24T12:33:36.599Z,22.31
2018-05-24T12:34:42.911Z,22.31
2018-05-24T12:35:49.132Z,22.32
2018-05-24T12:36:56.154Z,22.33
2018-05-24T12:38:02.448Z,22.33
2018-05-24T12:39:14.878Z,22.37
2018-05-24T12:40:22.580Z,22.37
2018-05-24T12:41:28.889Z,22.35
2018-05-24T12:42:35.437Z,22.36
2018-05-24T12:43:42.310Z,22.41
2018-05-24T12:44:49.131Z,22.41
2018-05-24T12:45:55.438Z,22.44
2018-05-24T12:47:01.684Z,22.48
2018-05-24T12:48:07.856Z,22.49
2018-05-24T12:49:14.201Z,22.48
2018-05-24T12:50:21.234Z,22.49
2018-05-24T12:51:27.161Z,22.50
2018-05-24T12:52:33.449Z,22.53
2018-05-24T12:53:39.712Z,22.58
2018-05-24T12:54:45.933Z,22.59
2018-05-24T12:55:52.276Z,22.63
2018-05-24T12:56:58.389Z,22.64
2018-05-24T12:58:04.665Z,22.63
2018-05-24T12:59:11.014Z,22.55
2018-05-24T13:00:17.289Z,22.52
2018-05-24T13:01:23.497Z,22.59
2018-05-24T13:02:29.727Z,22.64
2018-05-24T13:03:36.618Z,22.67
2018-05-24T13:04:43.889Z,22.65
2018-05-24T13:05:50.172Z,22.68
2018-05-24T13:06:56.433Z,22.56
2018-05-24T13:08:02.753Z,22.62
2018-05-24T13:09:09.931Z,22.70
2018-05-24T13:10:16.577Z,22.71
2018-05-24T13:11:22.547Z,22.74
2018-05-24T13:12:28.776Z,22.81
2018-05-24T13:13:35.184Z,22.76
2018-05-24T13:14:42.011Z,22.77
2018-05-24T13:15:48.334Z,22.81
2018-05-24T13:16:54.411Z,22.87
2018-05-24T13:18:00.895Z,22.88
2018-05-24T13:19:06.983Z,22.93
2018-05-24T13:20:13.302Z,22.83
2018-05-24T13:21:19.272Z,22.87
2018-05-24T13:22:25.398Z,22.94
2018-05-24T13:23:31.480Z,22.97
2018-05-24T13:24:37.710Z,22.99
2018-05-24T13:25:44.057Z,23.00
2018-05-24T13:26:50.612Z,23.01
2018-05-24T13:27:57.174Z,22.86
2018-05-24T13:29:03.184Z,22.89
2018-05-24T13:30:09.249Z,22.89
2018-05-24T13:31:15.976Z,22.94
2018-05-24T13:32:22.009Z,23.00
2018-05-24T13:33:28.281Z,23.02
2018-05-24T13:34:34.586Z,23.02
2018-05-24T13:35:40.809Z,23.03
2018-05-24T13:36:48.397Z,23.01
2018-05-24T13:37:54.498Z,23.03
2018-05-24T13:39:00.470Z,23.05
2018-05-24T13:40:06.484Z,23.04
2018-05-24T13:41:12.772Z,23.03
2018-05-24T13:42:26.074Z,23.04
2018-05-24T13:43:32.000Z,23.07
2018-05-24T13:44:37.981Z,23.10
2018-05-24T13:45:44.329Z,23.11
2018-05-24T13:46:50.587Z,23.12
2018-05-24T13:47:56.713Z,23.14
2018-05-24T13:49:03.042Z,23.14
2018-05-24T13:50:09.039Z,23.14
2018-05-24T13:51:15.327Z,23.01
2018-05-24T13:52:21.417Z,23.04
2018-05-24T13:53:27.479Z,23.08
2018-05-24T13:54:33.757Z,23.09
2018-05-24T13:55:40.417Z,23.10
2018-05-24T13:56:46.581Z,23.14
2018-05-24T13:57:52.355Z,23.15
2018-05-24T13:58:58.732Z,23.16
2018-05-24T14:00:04.077Z,23.07
2018-05-24T14:01:10.089Z,23.02
2018-05-24T14:02:16.216Z,23.07
2018-05-24T14:03:22.613Z,23.03
2018-05-24T14:04:28.931Z,23.05
2018-05-24T14:05:35.012Z,23.08
2018-05-24T14:06:42.132Z,23.07
2018-05-24T14:07:48.216Z,23.06
2018-05-24T14:08:55.989Z,23.13
2018-05-24T14:10:02.010Z,23.17
2018-05-24T14:11:08.104Z,23.15
2018-05-24T14:12:15.088Z,23.12
2018-05-24T14:13:21.380Z,23.10
2018-05-24T14:14:27.692Z,23.13
2018-05-24T14:15:33.967Z,23.14
2018-05-24T14:16:39.981Z,23.17
2018-05-24T14:17:46.223Z,23.18
2018-05-24T14:18:52.436Z,23.11
2018-05-24T14:19:58.440Z,23.13